sensor_id;sensor_type;location;lat;lon;timestamp;P1;durP1;ratioP1;P2;durP2;ratioP2
5054;SDS011;13829;48.990;8.346;2022-11-15T00:00:30;12.77;;;10.60;;
5054;SDS011;13829;48.990;8.346;2022-11-15T00:02:57;13.77;;;10.43;;
5054;SDS011;13829;48.990;8.346;2022-11-15T00:05:25;18.67;;;12.10;;
5054;SDS011;13829;48.990;8.346;2022-11-15T00:07:52;14.73;;;11.50;;
5054;SDS011;13829;48.990;8.346;2022-11-15T00:10:20;14.93;;;11.60;;
5054;SDS011;13829;48.990;8.346;2022-11-15T00:12:47;18.87;;;11.17;;
5054;SDS011;13829;48.990;8.346;2022-11-15T00:15:14;13.97;;;11.17;;
5054;SDS011;13829;48.990;8.346;2022-11-15T00:17:41;15.23;;;11.90;;
5054;SDS011;13829;48.990;8.346;2022-11-15T00:20:08;14.90;;;11.00;;
5054;SDS011;13829;48.990;8.346;2022-11-15T00:22:36;14.27;;;11.37;;
5054;SDS011;13829;48.990;8.346;2022-11-15T00:25:04;15.70;;;10.93;;
5054;SDS011;13829;48.990;8.346;2022-11-15T00:27:33;13.50;;;10.33;;
5054;SDS011;13829;48.990;8.346;2022-11-15T00:30:00;10.33;;;9.20;;
5054;SDS011;13829;48.990;8.346;2022-11-15T00:32:30;10.67;;;9.57;;
5054;SDS011;13829;48.990;8.346;2022-11-15T00:34:57;14.47;;;10.37;;
5054;SDS011;13829;48.990;8.346;2022-11-15T00:37:24;19.37;;;12.87;;
5054;SDS011;13829;48.990;8.346;2022-11-15T00:39:51;15.33;;;12.07;;
5054;SDS011;13829;48.990;8.346;2022-11-15T00:42:18;11.80;;;10.60;;
5054;SDS011;13829;48.990;8.346;2022-11-15T00:44:46;11.40;;;9.63;;
5054;SDS011;13829;48.990;8.346;2022-11-15T00:47:13;12.97;;;11.03;;
5054;SDS011;13829;48.990;8.346;2022-11-15T00:49:40;14.97;;;11.70;;
5054;SDS011;13829;48.990;8.346;2022-11-15T00:52:07;14.17;;;11.67;;
5054;SDS011;13829;48.990;8.346;2022-11-15T00:54:34;14.37;;;10.87;;
5054;SDS011;13829;48.990;8.346;2022-11-15T00:57:00;15.87;;;11.87;;
5054;SDS011;13829;48.990;8.346;2022-11-15T00:59:27;13.57;;;11.23;;
5054;SDS011;13829;48.990;8.346;2022-11-15T01:01:56;16.43;;;11.53;;
5054;SDS011;13829;48.990;8.346;2022-11-15T01:04:23;12.57;;;10.57;;
5054;SDS011;13829;48.990;8.346;2022-11-15T01:06:49;12.97;;;10.50;;
5054;SDS011;13829;48.990;8.346;2022-11-15T01:09:16;14.03;;;10.80;;
5054;SDS011;13829;48.990;8.346;2022-11-15T01:11:43;16.10;;;11.40;;
5054;SDS011;13829;48.990;8.346;2022-11-15T01:14:10;13.37;;;10.57;;
5054;SDS011;13829;48.990;8.346;2022-11-15T01:16:37;15.00;;;10.53;;
5054;SDS011;13829;48.990;8.346;2022-11-15T01:19:05;12.23;;;10.03;;
5054;SDS011;13829;48.990;8.346;2022-11-15T01:21:32;13.10;;;10.23;;
5054;SDS011;13829;48.990;8.346;2022-11-15T01:23:59;13.07;;;10.63;;
5054;SDS011;13829;48.990;8.346;2022-11-15T01:26:26;11.73;;;10.03;;
5054;SDS011;13829;48.990;8.346;2022-11-15T01:28:53;13.57;;;10.37;;
5054;SDS011;13829;48.990;8.346;2022-11-15T01:31:21;11.30;;;10.03;;
5054;SDS011;13829;48.990;8.346;2022-11-15T01:33:48;11.77;;;9.87;;
5054;SDS011;13829;48.990;8.346;2022-11-15T01:36:17;12.70;;;10.73;;
5054;SDS011;13829;48.990;8.346;2022-11-15T01:38:52;13.47;;;9.63;;
5054;SDS011;13829;48.990;8.346;2022-11-15T01:41:21;13.07;;;10.10;;
5054;SDS011;13829;48.990;8.346;2022-11-15T01:43:52;11.23;;;9.87;;
5054;SDS011;13829;48.990;8.346;2022-11-15T01:46:22;11.63;;;9.67;;
5054;SDS011;13829;48.990;8.346;2022-11-15T01:48:57;12.37;;;9.97;;
5054;SDS011;13829;48.990;8.346;2022-11-15T01:51:30;13.23;;;10.73;;
5054;SDS011;13829;48.990;8.346;2022-11-15T01:54:00;12.47;;;10.67;;
5054;SDS011;13829;48.990;8.346;2022-11-15T01:56:36;11.30;;;9.97;;
5054;SDS011;13829;48.990;8.346;2022-11-15T01:59:10;13.33;;;10.90;;
5054;SDS011;13829;48.990;8.346;2022-11-15T02:01:38;12.30;;;11.03;;
5054;SDS011;13829;48.990;8.346;2022-11-15T02:04:07;13.80;;;10.80;;
5054;SDS011;13829;48.990;8.346;2022-11-15T02:06:41;14.73;;;10.20;;
5054;SDS011;13829;48.990;8.346;2022-11-15T02:09:12;12.93;;;9.97;;
5054;SDS011;13829;48.990;8.346;2022-11-15T02:11:39;11.17;;;9.93;;
5054;SDS011;13829;48.990;8.346;2022-11-15T02:14:08;11.27;;;10.03;;
5054;SDS011;13829;48.990;8.346;2022-11-15T02:16:40;14.57;;;9.37;;
5054;SDS011;13829;48.990;8.346;2022-11-15T02:19:20;16.60;;;11.97;;
5054;SDS011;13829;48.990;8.346;2022-11-15T02:22:18;17.20;;;11.87;;
5054;SDS011;13829;48.990;8.346;2022-11-15T02:25:05;14.97;;;11.67;;
5054;SDS011;13829;48.990;8.346;2022-11-15T02:28:03;15.50;;;10.43;;
5054;SDS011;13829;48.990;8.346;2022-11-15T02:31:03;14.73;;;11.03;;
5054;SDS011;13829;48.990;8.346;2022-11-15T02:33:41;14.07;;;11.13;;
5054;SDS011;13829;48.990;8.346;2022-11-15T02:36:21;12.50;;;10.43;;
5054;SDS011;13829;48.990;8.346;2022-11-15T02:39:02;13.43;;;11.30;;
5054;SDS011;13829;48.990;8.346;2022-11-15T02:41:39;13.63;;;11.50;;
5054;SDS011;13829;48.990;8.346;2022-11-15T02:44:15;12.83;;;10.73;;
5054;SDS011;13829;48.990;8.346;2022-11-15T02:46:50;17.57;;;13.07;;
5054;SDS011;13829;48.990;8.346;2022-11-15T02:49:39;15.03;;;12.00;;
5054;SDS011;13829;48.990;8.346;2022-11-15T02:52:13;18.23;;;11.60;;
5054;SDS011;13829;48.990;8.346;2022-11-15T02:54:42;13.03;;;11.37;;
5054;SDS011;13829;48.990;8.346;2022-11-15T02:57:19;14.83;;;11.67;;
5054;SDS011;13829;48.990;8.346;2022-11-15T03:00:05;13.03;;;10.87;;
5054;SDS011;13829;48.990;8.346;2022-11-15T03:02:50;12.93;;;10.80;;
5054;SDS011;13829;48.990;8.346;2022-11-15T03:05:45;13.33;;;11.30;;
5054;SDS011;13829;48.990;8.346;2022-11-15T03:08:28;12.50;;;10.90;;
5054;SDS011;13829;48.990;8.346;2022-11-15T03:11:03;12.43;;;9.93;;
5054;SDS011;13829;48.990;8.346;2022-11-15T03:13:36;12.43;;;10.00;;
5054;SDS011;13829;48.990;8.346;2022-11-15T03:16:14;13.13;;;10.67;;
5054;SDS011;13829;48.990;8.346;2022-11-15T03:18:51;12.60;;;10.13;;
5054;SDS011;13829;48.990;8.346;2022-11-15T03:21:25;13.53;;;11.30;;
5054;SDS011;13829;48.990;8.346;2022-11-15T03:23:57;13.47;;;10.67;;
5054;SDS011;13829;48.990;8.346;2022-11-15T03:26:29;13.17;;;10.83;;
5054;SDS011;13829;48.990;8.346;2022-11-15T03:29:00;13.17;;;10.83;;
5054;SDS011;13829;48.990;8.346;2022-11-15T03:31:33;15.77;;;10.33;;
5054;SDS011;13829;48.990;8.346;2022-11-15T03:34:19;14.87;;;9.90;;
5054;SDS011;13829;48.990;8.346;2022-11-15T03:36:53;12.57;;;9.63;;
5054;SDS011;13829;48.990;8.346;2022-11-15T03:39:20;11.47;;;9.73;;
5054;SDS011;13829;48.990;8.346;2022-11-15T03:41:51;14.40;;;10.37;;
5054;SDS011;13829;48.990;8.346;2022-11-15T03:44:32;15.70;;;10.03;;
5054;SDS011;13829;48.990;8.346;2022-11-15T03:47:09;14.50;;;10.23;;
5054;SDS011;13829;48.990;8.346;2022-11-15T03:49:46;13.67;;;9.80;;
5054;SDS011;13829;48.990;8.346;2022-11-15T03:52:18;11.87;;;10.30;;
5054;SDS011;13829;48.990;8.346;2022-11-15T03:54:48;10.87;;;9.67;;
5054;SDS011;13829;48.990;8.346;2022-11-15T03:57:20;13.93;;;9.60;;
5054;SDS011;13829;48.990;8.346;2022-11-15T03:59:47;16.03;;;10.73;;
5054;SDS011;13829;48.990;8.346;2022-11-15T04:02:14;12.13;;;9.83;;
5054;SDS011;13829;48.990;8.346;2022-11-15T04:04:41;12.90;;;10.00;;
5054;SDS011;13829;48.990;8.346;2022-11-15T04:07:09;11.53;;;8.67;;
5054;SDS011;13829;48.990;8.346;2022-11-15T04:09:37;13.60;;;10.30;;
5054;SDS011;13829;48.990;8.346;2022-11-15T04:12:24;9.57;;;8.67;;
5054;SDS011;13829;48.990;8.346;2022-11-15T04:14:56;10.23;;;9.10;;
5054;SDS011;13829;48.990;8.346;2022-11-15T04:17:35;11.63;;;9.33;;
5054;SDS011;13829;48.990;8.346;2022-11-15T04:20:06;11.57;;;10.13;;
5054;SDS011;13829;48.990;8.346;2022-11-15T04:22:56;13.00;;;9.70;;
5054;SDS011;13829;48.990;8.346;2022-11-15T04:25:43;10.80;;;9.33;;
5054;SDS011;13829;48.990;8.346;2022-11-15T04:28:11;14.23;;;9.70;;
5054;SDS011;13829;48.990;8.346;2022-11-15T04:30:38;10.97;;;8.87;;
5054;SDS011;13829;48.990;8.346;2022-11-15T04:33:05;11.27;;;9.47;;
5054;SDS011;13829;48.990;8.346;2022-11-15T04:35:32;12.43;;;9.13;;
5054;SDS011;13829;48.990;8.346;2022-11-15T04:38:03;11.17;;;9.17;;
5054;SDS011;13829;48.990;8.346;2022-11-15T04:40:32;12.23;;;9.57;;
5054;SDS011;13829;48.990;8.346;2022-11-15T04:42:59;12.77;;;9.00;;
5054;SDS011;13829;48.990;8.346;2022-11-15T04:45:26;10.13;;;9.13;;
5054;SDS011;13829;48.990;8.346;2022-11-15T04:47:53;11.97;;;9.33;;
5054;SDS011;13829;48.990;8.346;2022-11-15T04:50:20;10.93;;;8.90;;
5054;SDS011;13829;48.990;8.346;2022-11-15T04:52:50;11.10;;;9.47;;
5054;SDS011;13829;48.990;8.346;2022-11-15T04:55:20;12.03;;;9.57;;
5054;SDS011;13829;48.990;8.346;2022-11-15T04:57:47;10.93;;;8.53;;
5054;SDS011;13829;48.990;8.346;2022-11-15T05:00:23;10.73;;;8.87;;
5054;SDS011;13829;48.990;8.346;2022-11-15T05:02:50;10.20;;;8.90;;
5054;SDS011;13829;48.990;8.346;2022-11-15T05:05:35;11.27;;;9.40;;
5054;SDS011;13829;48.990;8.346;2022-11-15T05:08:02;9.67;;;7.93;;
5054;SDS011;13829;48.990;8.346;2022-11-15T05:10:31;12.73;;;9.40;;
5054;SDS011;13829;48.990;8.346;2022-11-15T05:12:58;11.37;;;8.90;;
5054;SDS011;13829;48.990;8.346;2022-11-15T05:15:25;10.73;;;9.63;;
5054;SDS011;13829;48.990;8.346;2022-11-15T05:17:56;11.77;;;9.23;;
5054;SDS011;13829;48.990;8.346;2022-11-15T05:20:24;10.87;;;9.63;;
5054;SDS011;13829;48.990;8.346;2022-11-15T05:22:52;10.13;;;8.87;;
5054;SDS011;13829;48.990;8.346;2022-11-15T05:25:20;12.57;;;8.97;;
5054;SDS011;13829;48.990;8.346;2022-11-15T05:27:48;10.63;;;8.87;;
5054;SDS011;13829;48.990;8.346;2022-11-15T05:30:15;10.03;;;8.90;;
5054;SDS011;13829;48.990;8.346;2022-11-15T05:32:43;11.40;;;8.67;;
5054;SDS011;13829;48.990;8.346;2022-11-15T05:35:12;11.27;;;9.00;;
5054;SDS011;13829;48.990;8.346;2022-11-15T05:37:46;11.37;;;8.93;;
5054;SDS011;13829;48.990;8.346;2022-11-15T05:40:13;11.10;;;8.90;;
5054;SDS011;13829;48.990;8.346;2022-11-15T05:42:41;10.80;;;9.43;;
5054;SDS011;13829;48.990;8.346;2022-11-15T05:45:09;9.20;;;7.87;;
5054;SDS011;13829;48.990;8.346;2022-11-15T05:47:37;9.27;;;8.30;;
5054;SDS011;13829;48.990;8.346;2022-11-15T05:50:07;10.30;;;9.13;;
5054;SDS011;13829;48.990;8.346;2022-11-15T05:52:38;12.60;;;9.27;;
5054;SDS011;13829;48.990;8.346;2022-11-15T05:55:05;12.10;;;9.33;;
5054;SDS011;13829;48.990;8.346;2022-11-15T05:57:35;9.57;;;8.20;;
5054;SDS011;13829;48.990;8.346;2022-11-15T06:00:03;10.37;;;8.97;;
5054;SDS011;13829;48.990;8.346;2022-11-15T06:02:33;9.97;;;8.40;;
5054;SDS011;13829;48.990;8.346;2022-11-15T06:05:00;11.17;;;7.90;;
5054;SDS011;13829;48.990;8.346;2022-11-15T06:07:28;10.43;;;8.27;;
5054;SDS011;13829;48.990;8.346;2022-11-15T06:09:55;13.30;;;8.37;;
5054;SDS011;13829;48.990;8.346;2022-11-15T06:12:22;11.10;;;7.97;;
5054;SDS011;13829;48.990;8.346;2022-11-15T06:14:49;19.23;;;17.30;;
5054;SDS011;13829;48.990;8.346;2022-11-15T06:17:16;24.83;;;22.27;;
5054;SDS011;13829;48.990;8.346;2022-11-15T06:19:44;25.03;;;21.87;;
5054;SDS011;13829;48.990;8.346;2022-11-15T06:22:11;22.80;;;20.50;;
5054;SDS011;13829;48.990;8.346;2022-11-15T06:24:38;22.00;;;19.80;;
5054;SDS011;13829;48.990;8.346;2022-11-15T06:27:05;23.20;;;20.90;;
5054;SDS011;13829;48.990;8.346;2022-11-15T06:29:31;19.80;;;16.83;;
5054;SDS011;13829;48.990;8.346;2022-11-15T06:31:58;15.43;;;13.30;;
5054;SDS011;13829;48.990;8.346;2022-11-15T06:34:25;13.73;;;11.97;;
5054;SDS011;13829;48.990;8.346;2022-11-15T06:36:53;12.77;;;10.67;;
5054;SDS011;13829;48.990;8.346;2022-11-15T06:39:20;12.37;;;10.90;;
5054;SDS011;13829;48.990;8.346;2022-11-15T06:41:47;15.03;;;10.57;;
5054;SDS011;13829;48.990;8.346;2022-11-15T06:44:14;15.40;;;13.63;;
5054;SDS011;13829;48.990;8.346;2022-11-15T06:46:41;23.17;;;17.03;;
5054;SDS011;13829;48.990;8.346;2022-11-15T06:49:08;21.80;;;17.53;;
5054;SDS011;13829;48.990;8.346;2022-11-15T06:51:35;24.07;;;17.63;;
5054;SDS011;13829;48.990;8.346;2022-11-15T06:54:03;18.97;;;16.67;;
5054;SDS011;13829;48.990;8.346;2022-11-15T06:56:30;26.20;;;19.30;;
5054;SDS011;13829;48.990;8.346;2022-11-15T06:58:57;23.27;;;19.10;;
5054;SDS011;13829;48.990;8.346;2022-11-15T07:01:24;11.57;;;9.90;;
5054;SDS011;13829;48.990;8.346;2022-11-15T07:03:51;13.57;;;8.70;;
5054;SDS011;13829;48.990;8.346;2022-11-15T07:06:18;13.30;;;9.03;;
5054;SDS011;13829;48.990;8.346;2022-11-15T07:08:45;16.00;;;11.60;;
5054;SDS011;13829;48.990;8.346;2022-11-15T07:11:13;15.57;;;11.70;;
5054;SDS011;13829;48.990;8.346;2022-11-15T07:13:40;12.67;;;10.50;;
5054;SDS011;13829;48.990;8.346;2022-11-15T07:16:08;13.13;;;9.73;;
5054;SDS011;13829;48.990;8.346;2022-11-15T07:18:37;11.20;;;9.03;;
5054;SDS011;13829;48.990;8.346;2022-11-15T07:21:06;11.07;;;8.20;;
5054;SDS011;13829;48.990;8.346;2022-11-15T07:23:35;11.43;;;7.00;;
5054;SDS011;13829;48.990;8.346;2022-11-15T07:26:03;9.13;;;7.40;;
5054;SDS011;13829;48.990;8.346;2022-11-15T07:28:33;8.67;;;6.93;;
5054;SDS011;13829;48.990;8.346;2022-11-15T07:31:01;10.57;;;7.43;;
5054;SDS011;13829;48.990;8.346;2022-11-15T07:33:29;15.20;;;10.00;;
5054;SDS011;13829;48.990;8.346;2022-11-15T07:35:58;18.70;;;11.87;;
5054;SDS011;13829;48.990;8.346;2022-11-15T07:38:27;18.20;;;12.40;;
5054;SDS011;13829;48.990;8.346;2022-11-15T07:40:58;15.73;;;10.80;;
5054;SDS011;13829;48.990;8.346;2022-11-15T07:43:29;11.57;;;8.50;;
5054;SDS011;13829;48.990;8.346;2022-11-15T07:45:59;10.60;;;8.03;;
5054;SDS011;13829;48.990;8.346;2022-11-15T07:48:34;12.53;;;9.60;;
5054;SDS011;13829;48.990;8.346;2022-11-15T07:51:01;13.17;;;8.40;;
5054;SDS011;13829;48.990;8.346;2022-11-15T07:53:28;10.37;;;8.40;;
5054;SDS011;13829;48.990;8.346;2022-11-15T07:55:55;11.13;;;7.40;;
5054;SDS011;13829;48.990;8.346;2022-11-15T07:58:22;11.93;;;7.83;;
5054;SDS011;13829;48.990;8.346;2022-11-15T08:00:49;10.47;;;7.43;;
5054;SDS011;13829;48.990;8.346;2022-11-15T08:03:18;8.30;;;7.50;;
5054;SDS011;13829;48.990;8.346;2022-11-15T08:05:49;9.77;;;8.17;;
5054;SDS011;13829;48.990;8.346;2022-11-15T08:08:17;11.20;;;8.73;;
5054;SDS011;13829;48.990;8.346;2022-11-15T08:10:44;11.47;;;9.63;;
5054;SDS011;13829;48.990;8.346;2022-11-15T08:13:12;12.93;;;8.90;;
5054;SDS011;13829;48.990;8.346;2022-11-15T08:15:39;10.00;;;9.00;;
5054;SDS011;13829;48.990;8.346;2022-11-15T08:18:13;12.90;;;8.87;;
5054;SDS011;13829;48.990;8.346;2022-11-15T08:20:43;10.23;;;7.90;;
5054;SDS011;13829;48.990;8.346;2022-11-15T08:23:10;9.87;;;7.50;;
5054;SDS011;13829;48.990;8.346;2022-11-15T08:25:38;10.70;;;8.93;;
5054;SDS011;13829;48.990;8.346;2022-11-15T08:28:06;10.40;;;8.33;;
5054;SDS011;13829;48.990;8.346;2022-11-15T08:30:36;13.10;;;8.70;;
5054;SDS011;13829;48.990;8.346;2022-11-15T08:33:09;9.37;;;7.20;;
5054;SDS011;13829;48.990;8.346;2022-11-15T08:35:38;9.43;;;7.07;;
5054;SDS011;13829;48.990;8.346;2022-11-15T08:38:07;9.37;;;6.90;;
5054;SDS011;13829;48.990;8.346;2022-11-15T08:40:34;10.57;;;7.67;;
5054;SDS011;13829;48.990;8.346;2022-11-15T08:43:02;8.77;;;7.57;;
5054;SDS011;13829;48.990;8.346;2022-11-15T08:45:29;9.93;;;7.67;;
5054;SDS011;13829;48.990;8.346;2022-11-15T08:47:57;9.90;;;8.17;;
5054;SDS011;13829;48.990;8.346;2022-11-15T08:50:27;10.37;;;8.03;;
5054;SDS011;13829;48.990;8.346;2022-11-15T08:52:54;8.67;;;7.77;;
5054;SDS011;13829;48.990;8.346;2022-11-15T08:55:22;11.50;;;7.70;;
5054;SDS011;13829;48.990;8.346;2022-11-15T08:57:49;10.33;;;8.83;;
5054;SDS011;13829;48.990;8.346;2022-11-15T09:00:16;10.67;;;9.03;;
5054;SDS011;13829;48.990;8.346;2022-11-15T09:02:45;11.57;;;8.93;;
5054;SDS011;13829;48.990;8.346;2022-11-15T09:05:12;12.43;;;10.20;;
5054;SDS011;13829;48.990;8.346;2022-11-15T09:07:40;10.97;;;9.77;;
5054;SDS011;13829;48.990;8.346;2022-11-15T09:10:08;12.33;;;9.73;;
5054;SDS011;13829;48.990;8.346;2022-11-15T09:12:36;10.00;;;8.93;;
5054;SDS011;13829;48.990;8.346;2022-11-15T09:15:04;10.80;;;9.37;;
5054;SDS011;13829;48.990;8.346;2022-11-15T09:17:32;11.73;;;9.70;;
5054;SDS011;13829;48.990;8.346;2022-11-15T09:19:59;12.10;;;8.87;;
5054;SDS011;13829;48.990;8.346;2022-11-15T09:22:26;15.47;;;10.57;;
5054;SDS011;13829;48.990;8.346;2022-11-15T09:24:53;14.37;;;10.90;;
5054;SDS011;13829;48.990;8.346;2022-11-15T09:27:20;13.80;;;9.50;;
5054;SDS011;13829;48.990;8.346;2022-11-15T09:29:48;13.07;;;7.83;;
5054;SDS011;13829;48.990;8.346;2022-11-15T09:32:15;9.40;;;6.97;;
5054;SDS011;13829;48.990;8.346;2022-11-15T09:34:42;10.13;;;8.03;;
5054;SDS011;13829;48.990;8.346;2022-11-15T09:37:09;10.13;;;7.73;;
5054;SDS011;13829;48.990;8.346;2022-11-15T09:39:37;8.93;;;7.93;;
5054;SDS011;13829;48.990;8.346;2022-11-15T09:42:17;11.20;;;8.00;;
5054;SDS011;13829;48.990;8.346;2022-11-15T09:44:59;12.13;;;7.40;;
5054;SDS011;13829;48.990;8.346;2022-11-15T09:47:46;12.93;;;9.10;;
5054;SDS011;13829;48.990;8.346;2022-11-15T09:50:36;14.40;;;9.63;;
5054;SDS011;13829;48.990;8.346;2022-11-15T09:53:27;11.87;;;9.03;;
5054;SDS011;13829;48.990;8.346;2022-11-15T09:56:15;12.93;;;9.53;;
5054;SDS011;13829;48.990;8.346;2022-11-15T09:58:49;26.77;;;19.03;;
5054;SDS011;13829;48.990;8.346;2022-11-15T10:01:34;17.70;;;12.30;;
5054;SDS011;13829;48.990;8.346;2022-11-15T10:04:10;16.17;;;12.50;;
5054;SDS011;13829;48.990;8.346;2022-11-15T10:06:38;19.97;;;15.07;;
5054;SDS011;13829;48.990;8.346;2022-11-15T10:09:19;15.47;;;12.27;;
5054;SDS011;13829;48.990;8.346;2022-11-15T10:11:54;13.03;;;10.90;;
5054;SDS011;13829;48.990;8.346;2022-11-15T10:14:21;12.67;;;10.13;;
5054;SDS011;13829;48.990;8.346;2022-11-15T10:20:16;12.53;;;8.80;;
5054;SDS011;13829;48.990;8.346;2022-11-15T10:22:48;16.00;;;9.17;;
5054;SDS011;13829;48.990;8.346;2022-11-15T10:25:20;13.73;;;8.83;;
5054;SDS011;13829;48.990;8.346;2022-11-15T10:27:52;11.37;;;8.50;;
5054;SDS011;13829;48.990;8.346;2022-11-15T10:30:23;13.37;;;9.83;;
5054;SDS011;13829;48.990;8.346;2022-11-15T10:32:59;12.70;;;9.37;;
5054;SDS011;13829;48.990;8.346;2022-11-15T10:35:40;10.90;;;8.67;;
5054;SDS011;13829;48.990;8.346;2022-11-15T10:38:08;11.80;;;9.53;;
5054;SDS011;13829;48.990;8.346;2022-11-15T10:40:38;12.50;;;9.60;;
5054;SDS011;13829;48.990;8.346;2022-11-15T10:43:13;14.03;;;9.47;;
5054;SDS011;13829;48.990;8.346;2022-11-15T10:45:43;13.80;;;9.47;;
5054;SDS011;13829;48.990;8.346;2022-11-15T10:50:54;14.50;;;9.90;;
5054;SDS011;13829;48.990;8.346;2022-11-15T10:53:29;17.77;;;10.27;;
5054;SDS011;13829;48.990;8.346;2022-11-15T10:56:07;9.50;;;8.50;;
5054;SDS011;13829;48.990;8.346;2022-11-15T10:58:41;10.93;;;7.67;;
5054;SDS011;13829;48.990;8.346;2022-11-15T11:01:11;11.53;;;7.10;;
5054;SDS011;13829;48.990;8.346;2022-11-15T11:03:43;7.40;;;6.60;;
5054;SDS011;13829;48.990;8.346;2022-11-15T11:06:24;7.27;;;5.77;;
5054;SDS011;13829;48.990;8.346;2022-11-15T11:08:55;5.60;;;5.00;;
5054;SDS011;13829;48.990;8.346;2022-11-15T11:11:24;10.57;;;5.53;;
5054;SDS011;13829;48.990;8.346;2022-11-15T11:14:11;8.83;;;5.07;;
5054;SDS011;13829;48.990;8.346;2022-11-15T11:16:47;6.43;;;5.03;;
5054;SDS011;13829;48.990;8.346;2022-11-15T11:19:26;5.87;;;5.13;;
5054;SDS011;13829;48.990;8.346;2022-11-15T11:22:20;8.10;;;5.07;;
5054;SDS011;13829;48.990;8.346;2022-11-15T11:24:59;6.93;;;5.07;;
5054;SDS011;13829;48.990;8.346;2022-11-15T11:27:51;8.90;;;5.63;;
5054;SDS011;13829;48.990;8.346;2022-11-15T11:30:41;10.13;;;5.80;;
5054;SDS011;13829;48.990;8.346;2022-11-15T11:33:21;8.27;;;6.77;;
5054;SDS011;13829;48.990;8.346;2022-11-15T11:36:01;10.13;;;6.63;;
5054;SDS011;13829;48.990;8.346;2022-11-15T11:38:53;9.60;;;6.10;;
5054;SDS011;13829;48.990;8.346;2022-11-15T11:41:43;12.87;;;6.60;;
5054;SDS011;13829;48.990;8.346;2022-11-15T11:44:30;6.93;;;5.17;;
5054;SDS011;13829;48.990;8.346;2022-11-15T11:47:14;6.20;;;5.60;;
5054;SDS011;13829;48.990;8.346;2022-11-15T11:49:50;8.40;;;5.47;;
5054;SDS011;13829;48.990;8.346;2022-11-15T11:52:23;7.13;;;4.80;;
5054;SDS011;13829;48.990;8.346;2022-11-15T11:54:59;7.27;;;4.63;;
5054;SDS011;13829;48.990;8.346;2022-11-15T11:57:40;6.90;;;4.87;;
5054;SDS011;13829;48.990;8.346;2022-11-15T12:00:18;6.20;;;4.97;;
5054;SDS011;13829;48.990;8.346;2022-11-15T12:02:50;8.37;;;4.80;;
5054;SDS011;13829;48.990;8.346;2022-11-15T12:05:34;6.87;;;4.80;;
5054;SDS011;13829;48.990;8.346;2022-11-15T12:08:14;5.90;;;4.63;;
5054;SDS011;13829;48.990;8.346;2022-11-15T12:10:56;5.40;;;4.73;;
5054;SDS011;13829;48.990;8.346;2022-11-15T12:13:32;6.87;;;4.60;;
5054;SDS011;13829;48.990;8.346;2022-11-15T12:16:04;6.80;;;5.03;;
5054;SDS011;13829;48.990;8.346;2022-11-15T12:18:38;5.23;;;4.40;;
5054;SDS011;13829;48.990;8.346;2022-11-15T12:21:13;5.93;;;4.10;;
5054;SDS011;13829;48.990;8.346;2022-11-15T12:23:50;8.07;;;5.60;;
5054;SDS011;13829;48.990;8.346;2022-11-15T12:26:30;7.00;;;5.63;;
5054;SDS011;13829;48.990;8.346;2022-11-15T12:29:06;9.97;;;6.13;;
5054;SDS011;13829;48.990;8.346;2022-11-15T12:31:42;6.30;;;4.90;;
5054;SDS011;13829;48.990;8.346;2022-11-15T12:34:29;7.37;;;5.47;;
5054;SDS011;13829;48.990;8.346;2022-11-15T12:40:27;8.03;;;5.37;;
5054;SDS011;13829;48.990;8.346;2022-11-15T12:43:04;7.43;;;5.07;;
5054;SDS011;13829;48.990;8.346;2022-11-15T12:46:04;7.83;;;5.50;;
5054;SDS011;13829;48.990;8.346;2022-11-15T12:48:47;7.00;;;4.70;;
5054;SDS011;13829;48.990;8.346;2022-11-15T12:51:21;7.33;;;5.03;;
5054;SDS011;13829;48.990;8.346;2022-11-15T12:57:31;6.23;;;4.67;;
5054;SDS011;13829;48.990;8.346;2022-11-15T13:03:22;7.60;;;4.97;;
5054;SDS011;13829;48.990;8.346;2022-11-15T13:06:00;5.57;;;4.57;;
5054;SDS011;13829;48.990;8.346;2022-11-15T13:08:39;7.97;;;4.73;;
5054;SDS011;13829;48.990;8.346;2022-11-15T13:17:27;7.43;;;5.53;;
5054;SDS011;13829;48.990;8.346;2022-11-15T13:20:14;8.27;;;4.73;;
5054;SDS011;13829;48.990;8.346;2022-11-15T13:22:48;6.83;;;4.73;;
5054;SDS011;13829;48.990;8.346;2022-11-15T13:25:23;6.83;;;5.30;;
5054;SDS011;13829;48.990;8.346;2022-11-15T13:28:21;7.87;;;4.67;;
5054;SDS011;13829;48.990;8.346;2022-11-15T13:30:58;6.50;;;4.83;;
5054;SDS011;13829;48.990;8.346;2022-11-15T13:33:30;8.20;;;5.03;;
5054;SDS011;13829;48.990;8.346;2022-11-15T13:36:00;9.17;;;5.80;;
5054;SDS011;13829;48.990;8.346;2022-11-15T13:38:32;8.77;;;6.07;;
5054;SDS011;13829;48.990;8.346;2022-11-15T13:41:11;7.10;;;5.83;;
5054;SDS011;13829;48.990;8.346;2022-11-15T13:43:47;9.70;;;6.30;;
5054;SDS011;13829;48.990;8.346;2022-11-15T13:46:16;11.17;;;7.33;;
5054;SDS011;13829;48.990;8.346;2022-11-15T13:48:46;8.07;;;5.77;;
5054;SDS011;13829;48.990;8.346;2022-11-15T13:51:19;11.87;;;6.03;;
5054;SDS011;13829;48.990;8.346;2022-11-15T13:53:56;8.57;;;5.47;;
5054;SDS011;13829;48.990;8.346;2022-11-15T13:56:28;12.33;;;6.00;;
5054;SDS011;13829;48.990;8.346;2022-11-15T13:59:00;15.10;;;7.20;;
5054;SDS011;13829;48.990;8.346;2022-11-15T14:01:35;11.33;;;6.47;;
5054;SDS011;13829;48.990;8.346;2022-11-15T14:04:02;12.23;;;6.17;;
5054;SDS011;13829;48.990;8.346;2022-11-15T14:06:31;10.30;;;6.57;;
5054;SDS011;13829;48.990;8.346;2022-11-15T14:09:00;8.77;;;6.50;;
5054;SDS011;13829;48.990;8.346;2022-11-15T14:11:51;11.97;;;5.30;;
5054;SDS011;13829;48.990;8.346;2022-11-15T14:14:22;6.87;;;5.10;;
5054;SDS011;13829;48.990;8.346;2022-11-15T14:16:50;9.70;;;5.23;;
5054;SDS011;13829;48.990;8.346;2022-11-15T14:19:36;9.63;;;5.50;;
5054;SDS011;13829;48.990;8.346;2022-11-15T14:25:07;8.93;;;6.47;;
5054;SDS011;13829;48.990;8.346;2022-11-15T14:27:43;8.77;;;5.80;;
5054;SDS011;13829;48.990;8.346;2022-11-15T14:30:32;9.87;;;6.07;;
5054;SDS011;13829;48.990;8.346;2022-11-15T14:32:59;9.67;;;6.50;;
5054;SDS011;13829;48.990;8.346;2022-11-15T14:35:27;12.27;;;5.80;;
5054;SDS011;13829;48.990;8.346;2022-11-15T14:37:54;12.43;;;6.40;;
5054;SDS011;13829;48.990;8.346;2022-11-15T14:40:21;11.10;;;7.20;;
5054;SDS011;13829;48.990;8.346;2022-11-15T14:42:49;10.43;;;7.43;;
5054;SDS011;13829;48.990;8.346;2022-11-15T14:45:17;8.43;;;5.97;;
5054;SDS011;13829;48.990;8.346;2022-11-15T14:47:48;10.13;;;7.40;;
5054;SDS011;13829;48.990;8.346;2022-11-15T14:50:15;9.70;;;8.23;;
5054;SDS011;13829;48.990;8.346;2022-11-15T14:52:45;10.57;;;7.40;;
5054;SDS011;13829;48.990;8.346;2022-11-15T14:55:14;8.43;;;5.87;;
5054;SDS011;13829;48.990;8.346;2022-11-15T14:57:47;8.83;;;5.47;;
5054;SDS011;13829;48.990;8.346;2022-11-15T15:00:14;8.60;;;5.47;;
5054;SDS011;13829;48.990;8.346;2022-11-15T15:02:42;6.93;;;5.60;;
5054;SDS011;13829;48.990;8.346;2022-11-15T15:05:16;7.03;;;4.60;;
5054;SDS011;13829;48.990;8.346;2022-11-15T15:07:46;7.43;;;5.57;;
5054;SDS011;13829;48.990;8.346;2022-11-15T15:10:14;7.20;;;5.40;;
5054;SDS011;13829;48.990;8.346;2022-11-15T15:12:42;9.07;;;5.70;;
5054;SDS011;13829;48.990;8.346;2022-11-15T15:15:12;8.97;;;5.17;;
5054;SDS011;13829;48.990;8.346;2022-11-15T15:17:41;9.63;;;5.27;;
5054;SDS011;13829;48.990;8.346;2022-11-15T15:20:09;5.47;;;4.80;;
5054;SDS011;13829;48.990;8.346;2022-11-15T15:22:38;8.87;;;5.70;;
5054;SDS011;13829;48.990;8.346;2022-11-15T15:25:19;9.20;;;5.63;;
5054;SDS011;13829;48.990;8.346;2022-11-15T15:27:49;5.93;;;4.93;;
5054;SDS011;13829;48.990;8.346;2022-11-15T15:30:16;5.87;;;5.17;;
5054;SDS011;13829;48.990;8.346;2022-11-15T15:32:43;6.93;;;5.20;;
5054;SDS011;13829;48.990;8.346;2022-11-15T15:35:11;6.77;;;5.30;;
5054;SDS011;13829;48.990;8.346;2022-11-15T15:37:40;7.27;;;6.10;;
5054;SDS011;13829;48.990;8.346;2022-11-15T15:40:10;9.40;;;6.43;;
5054;SDS011;13829;48.990;8.346;2022-11-15T15:42:41;10.37;;;8.47;;